createdAt,value
2022-10-03T00:02:12.188Z,101521.28
2022-10-03T00:05:12.414Z,101534.50
2022-10-03T00:07:56.511Z,101531.88
2022-10-03T00:10:38.537Z,101530.19
2022-10-03T00:13:28.373Z,101530.31
2022-10-03T00:16:03.198Z,101526.84
2022-10-03T00:19:08.565Z,101524.22
2022-10-03T00:21:53.586Z,101530.19
2022-10-03T00:24:52.457Z,101528.53
2022-10-03T00:27:37.211Z,101540.16
2022-10-03T00:30:22.034Z,101535.84
2022-10-03T00:33:03.697Z,101531.63
2022-10-03T00:35:52.739Z,101535.00
2022-10-03T00:38:48.116Z,101539.59
2022-10-03T00:41:38.622Z,101534.56
2022-10-03T00:44:28.818Z,101539.59
2022-10-03T00:46:58.792Z,101543.06
2022-10-03T00:50:30.444Z,101547.84
2022-10-03T00:54:02.767Z,101549.59
2022-10-03T00:57:16.406Z,101552.25
2022-10-03T01:00:06.144Z,101550.97
2022-10-03T01:02:44.765Z,101552.78
2022-10-03T01:05:46.781Z,101555.75
2022-10-03T01:08:27.045Z,101553.53
2022-10-03T01:11:25.034Z,101567.75
2022-10-03T01:13:54.425Z,101567.31
2022-10-03T01:17:13.777Z,101566.09
2022-10-03T01:20:22.324Z,101573.78
2022-10-03T01:23:34.151Z,101570.03
2022-10-03T01:26:40.530Z,101573.88
2022-10-03T01:29:34.426Z,101582.38
2022-10-03T01:32:30.741Z,101576.75
2022-10-03T01:36:12.410Z,101580.38
2022-10-03T01:38:47.571Z,101579.66
2022-10-03T01:41:50.208Z,101581.41
2022-10-03T01:44:58.017Z,101585.59
2022-10-03T01:47:37.618Z,101590.28
2022-10-03T01:50:26.321Z,101588.69
2022-10-03T01:53:53.432Z,101597.88
2022-10-03T01:56:58.434Z,101601.06
2022-10-03T02:00:05.372Z,101602.69
2022-10-03T02:02:50.264Z,101605.75
2022-10-03T02:06:01.037Z,101600.16
2022-10-03T02:09:03.305Z,101611.19
2022-10-03T02:12:09.245Z,101603.81
2022-10-03T02:14:58.755Z,101599.25
2022-10-03T02:17:58.527Z,101598.94
2022-10-03T02:20:51.967Z,101602.50
2022-10-03T02:23:33.633Z,101593.72
2022-10-03T02:26:58.694Z,101595.84
2022-10-03T02:29:49.970Z,101593.81
2022-10-03T02:32:41.753Z,101597.44
2022-10-03T02:35:10.433Z,101598.78
2022-10-03T02:38:24.433Z,101595.22
2022-10-03T02:41:32.736Z,101587.28
2022-10-03T02:44:37.568Z,101585.13
2022-10-03T02:47:48.716Z,101585.13
2022-10-03T02:50:42.280Z,101594.47
2022-10-03T02:53:51.213Z,101582.72
2022-10-03T02:56:56.463Z,101592.03
2022-10-03T03:00:20.863Z,101589.25
2022-10-03T03:03:34.341Z,101595.47
2022-10-03T03:06:54.514Z,101595.66
2022-10-03T03:10:11.657Z,101596.13
2022-10-03T03:12:52.939Z,101604.56
2022-10-03T03:16:24.048Z,101601.66
2022-10-03T03:19:43.776Z,101610.66
2022-10-03T03:22:35.241Z,101614.03
2022-10-03T03:25:39.182Z,101617.38
2022-10-03T03:28:46.887Z,101630.59
2022-10-03T03:31:29.671Z,101627.72
2022-10-03T03:34:19.022Z,101625.22
2022-10-03T03:37:05.095Z,101636.69
2022-10-03T03:39:49.796Z,101630.06
2022-10-03T03:43:04.101Z,101626.69
2022-10-03T03:45:33.685Z,101624.81
2022-10-03T03:49:16.473Z,101627.59
2022-10-03T03:52:14.774Z,101635.06
2022-10-03T03:55:32.760Z,101641.25
2022-10-03T03:58:41.802Z,101636.56
2022-10-03T04:01:39.661Z,101642.00
2022-10-03T04:04:38.105Z,101645.53
2022-10-03T04:08:12.221Z,101647.13
2022-10-03T04:10:50.488Z,101649.25
2022-10-03T04:13:24.316Z,101641.00
2022-10-03T04:16:13.081Z,101643.72
2022-10-03T04:19:06.670Z,101656.28
2022-10-03T04:22:12.880Z,101651.63
2022-10-03T04:25:01.269Z,101662.63
2022-10-03T04:27:48.229Z,101654.69
2022-10-03T04:30:51.593Z,101656.09
2022-10-03T04:33:53.817Z,101663.88
2022-10-03T04:36:41.170Z,101669.75
2022-10-03T04:39:21.592Z,101669.91
2022-10-03T04:41:55.158Z,101669.91
2022-10-03T04:44:49.876Z,101659.66
2022-10-03T04:47:27.573Z,101659.16
2022-10-03T04:50:12.481Z,101657.09
2022-10-03T04:53:04.782Z,101662.69
2022-10-03T04:55:43.039Z,101659.16
2022-10-03T04:58:25.151Z,101661.75
2022-10-03T05:01:12.167Z,101662.44
2022-10-03T05:03:57.597Z,101658.31
2022-10-03T05:06:49.288Z,101664.78
2022-10-03T05:09:42.196Z,101668.50
2022-10-03T05:12:45.852Z,101670.19
2022-10-03T05:15:42.264Z,101672.97
2022-10-03T05:18:58.968Z,101677.88
2022-10-03T05:22:20.940Z,101685.75
2022-10-03T05:25:11.869Z,101682.84
2022-10-03T05:28:11.776Z,101692.69
2022-10-03T05:31:08.210Z,101693.94
2022-10-03T05:33:54.450Z,101695.88
2022-10-03T05:36:24.289Z,101694.53
2022-10-03T05:39:28.185Z,101698.75
2022-10-03T05:42:20.856Z,101695.13
2022-10-03T05:44:58.345Z,101702.63
2022-10-03T05:48:11.003Z,101704.78
2022-10-03T05:51:15.340Z,101706.81
2022-10-03T05:54:24.052Z,101710.75
2022-10-03T05:57:07.219Z,101710.31
2022-10-03T06:00:08.229Z,101711.66
2022-10-03T06:03:10.877Z,101716.66
2022-10-03T06:06:27.331Z,101730.47
2022-10-03T06:09:45.444Z,101732.88
2022-10-03T06:12:43.587Z,101738.59
2022-10-03T06:15:43.418Z,101746.34
2022-10-03T06:18:38.211Z,101750.81
2022-10-03T06:21:48.800Z,101750.59
2022-10-03T06:25:11.359Z,101754.25
2022-10-03T06:27:59.084Z,101743.00
2022-10-03T06:31:02.756Z,101746.31
2022-10-03T06:33:35.276Z,101748.72
2022-10-03T06:36:13.841Z,101758.50
2022-10-03T06:39:33.091Z,101759.47
2022-10-03T06:42:34.858Z,101755.75
2022-10-03T06:45:31.115Z,101761.50
2022-10-03T06:48:49.299Z,101758.38
2022-10-03T06:51:40.622Z,101753.81
2022-10-03T06:55:04.401Z,101754.88
2022-10-03T06:58:27.186Z,101761.84
2022-10-03T07:01:31.529Z,101755.41
2022-10-03T07:04:31.553Z,101759.28
2022-10-03T07:07:53.772Z,101764.22
2022-10-03T07:11:09.999Z,101756.13
2022-10-03T07:14:36.887Z,101747.47
2022-10-03T07:17:29.518Z,101742.59
2022-10-03T07:20:26.877Z,101746.19
2022-10-03T07:23:52.193Z,101744.72
2022-10-03T07:26:51.789Z,101746.00
2022-10-03T07:30:01.017Z,101748.31
2022-10-03T07:33:06.033Z,101760.81
2022-10-03T07:36:38.355Z,101761.41
2022-10-03T07:40:13.241Z,101771.69
2022-10-03T07:43:02.152Z,101767.28
2022-10-03T07:45:40.862Z,101771.03
2022-10-03T07:49:04.885Z,101784.94
2022-10-03T07:52:00.707Z,101785.53
2022-10-03T07:55:10.437Z,101778.88
2022-10-03T07:57:52.135Z,101775.03
2022-10-03T08:00:40.414Z,101773.78
2022-10-03T08:04:24.140Z,101772.72
2022-10-03T08:07:20.147Z,101776.44
2022-10-03T08:10:16.036Z,101771.69
2022-10-03T08:13:14.463Z,101778.91
2022-10-03T08:16:07.402Z,101780.84
2022-10-03T08:18:42.839Z,101778.53
2022-10-03T08:21:22.103Z,101778.53
2022-10-03T08:24:22.133Z,101788.78
2022-10-03T08:27:26.632Z,101776.63
2022-10-03T08:30:23.749Z,101772.66
2022-10-03T08:32:59.487Z,101781.97
2022-10-03T08:35:57.651Z,101777.72
2022-10-03T08:38:55.574Z,101776.72
2022-10-03T08:42:15.324Z,101770.97
2022-10-03T08:45:25.031Z,101774.00
2022-10-03T08:48:41.469Z,101782.94
2022-10-03T08:51:55.375Z,101773.13
2022-10-03T08:55:23.359Z,101768.16
2022-10-03T08:58:31.763Z,101766.75
2022-10-03T09:01:36.011Z,101760.50
2022-10-03T09:04:46.353Z,101769.47
2022-10-03T09:07:37.450Z,101769.16
2022-10-03T09:10:41.549Z,101766.31
2022-10-03T09:13:47.875Z,101764.03
2022-10-03T09:17:06.460Z,101757.66
2022-10-03T09:20:24.372Z,101764.16
2022-10-03T09:23:26.079Z,101765.31
2022-10-03T09:26:56.006Z,101757.41
2022-10-03T09:29:50.989Z,101764.66
2022-10-03T09:32:42.844Z,101771.78
2022-10-03T09:35:36.010Z,101776.41
2022-10-03T09:38:58.707Z,101776.31
2022-10-03T09:41:31.846Z,101776.53
2022-10-03T09:44:37.728Z,101765.78
2022-10-03T09:47:29.191Z,101766.16
2022-10-03T09:50:19.383Z,101768.81
2022-10-03T09:53:04.198Z,101767.06
2022-10-03T09:56:35.887Z,101768.59
2022-10-03T09:59:34.219Z,101764.63
